Time;durP1;ratioP1;P1;durP2;ratioP2;P2;SDS_P1;SDS_P2;PMS_P1;PMS_P2;Temp;Humidity;BMP_temperature;BMP_pressure;BME280_temperature;BME280_humidity;BME280_pressure;Samples;Min_cycle;Max_cycle;Signal;HPM_P1;HPM_P2
2021/06/14 00:01:04;;;;;;;9.32;4.82;;;;;;;22.09;56.54;100582.19;5070173;28;20508;-67
2021/06/14 00:03:31;;;;;;;16.83;4.38;;;;;;;21.98;56.56;100564.81;5065740;28;20350;-68
2021/06/14 00:05:58;;;;;;;9.15;4.40;;;;;;;22.11;56.34;100567.59;5071497;28;20131;-67
2021/06/14 00:08:25;;;;;;;10.82;5.05;;;;;;;22.20;55.83;100579.72;5062267;28;20068;-67
2021/06/14 00:10:55;;;;;;;8.52;4.35;;;;;;;22.22;55.67;100557.41;5066660;28;20127;-66
2021/06/14 00:13:23;;;;;;;8.00;4.07;;;;;;;22.31;55.43;100546.72;5065787;28;20127;-67
2021/06/14 00:15:51;;;;;;;10.37;3.73;;;;;;;22.40;55.53;100563.66;5064152;28;20055;-65
2021/06/14 00:18:19;;;;;;;8.70;4.25;;;;;;;22.41;55.36;100560.44;5067776;28;20083;-63
2021/06/14 00:20:55;;;;;;;7.47;4.53;;;;;;;22.30;55.50;100547.94;5067866;28;20040;-63
2021/06/14 00:23:26;;;;;;;10.93;4.75;;;;;;;22.41;55.48;100557.59;5065205;28;20119;-63
2021/06/14 00:25:53;;;;;;;8.60;4.53;;;;;;;22.32;55.46;100544.72;5083954;28;20123;-63
2021/06/14 00:28:20;;;;;;;6.65;4.28;;;;;;;22.36;55.58;100560.72;5069441;28;20185;-64
2021/06/14 00:30:48;;;;;;;15.05;4.43;;;;;;;22.23;55.58;100542.03;5068939;28;20610;-65
2021/06/14 00:33:16;;;;;;;9.85;4.28;;;;;;;22.29;55.52;100554.81;5069985;28;20097;-65
2021/06/14 00:35:45;;;;;;;8.40;4.35;;;;;;;22.27;55.39;100554.34;5067675;28;20047;-64
2021/06/14 00:38:13;;;;;;;8.32;5.28;;;;;;;22.31;55.21;100560.94;5064431;28;20079;-63
2021/06/14 00:40:41;;;;;;;6.95;3.65;;;;;;;22.37;55.23;100559.50;5068867;28;20049;-63
2021/06/14 00:43:09;;;;;;;7.18;3.72;;;;;;;22.37;55.16;100553.00;5064948;28;20137;-63
2021/06/14 00:45:40;;;;;;;6.65;3.15;;;;;;;22.40;54.94;100558.81;5067923;28;20465;-63
2021/06/14 00:48:08;;;;;;;5.80;3.33;;;;;;;22.42;54.71;100559.25;5071569;28;20048;-64
2021/06/14 00:50:42;;;;;;;7.68;4.15;;;;;;;22.34;54.74;100537.47;5068465;28;20151;-63
2021/06/14 00:53:12;;;;;;;7.00;3.30;;;;;;;22.39;54.43;100544.91;5060250;28;20123;-63
2021/06/14 00:55:40;;;;;;;6.03;3.55;;;;;;;22.52;54.23;100554.25;5064261;28;20052;-67
2021/06/14 00:58:07;;;;;;;9.27;3.80;;;;;;;22.48;54.49;100552.13;5066260;28;20135;-67
2021/06/14 01:00:34;;;;;;;7.50;4.55;;;;;;;22.37;54.43;100531.06;5069693;28;20048;-67
2021/06/14 01:03:00;;;;;;;6.43;3.97;;;;;;;22.45;54.55;100543.47;5069162;28;20076;-66
2021/06/14 01:05:31;;;;;;;7.95;4.32;;;;;;;22.43;55.02;100535.31;5070311;28;20124;-65
2021/06/14 01:07:58;;;;;;;6.72;4.30;;;;;;;22.41;54.65;100528.31;5060799;28;20068;-65
2021/06/14 01:10:26;;;;;;;7.22;4.10;;;;;;;22.47;54.68;100530.56;5053474;28;20041;-68
2021/06/14 01:13:06;;;;;;;5.97;4.15;;;;;;;22.47;55.05;100541.13;5054728;28;20139;-68
2021/06/14 01:16:15;;;;;;;10.35;4.18;;;;;;;22.38;54.96;100529.88;5062024;28;20135;-68
2021/06/14 01:18:55;;;;;;;5.40;3.95;;;;;;;22.29;55.62;100529.22;5069712;28;20460;-65
2021/06/14 01:21:45;;;;;;;5.70;4.38;;;;;;;22.13;56.38;100519.75;5064214;28;20132;-66
2021/06/14 01:24:42;;;;;;;9.73;4.00;;;;;;;22.12;56.89;100524.59;5067027;28;20123;-67
2021/06/14 01:27:09;;;;;;;9.43;4.18;;;;;;;22.14;57.25;100539.28;5067961;28;20087;-68
2021/06/14 01:29:37;;;;;;;9.27;4.10;;;;;;;21.99;57.44;100508.75;5066153;28;20082;-63
2021/06/14 01:32:07;;;;;;;8.40;4.38;;;;;;;22.08;57.85;100531.34;5068538;28;20044;-63
2021/06/14 01:34:38;;;;;;;9.57;3.70;;;;;;;22.06;57.85;100525.22;5060044;28;20586;-66
2021/06/14 01:37:06;;;;;;;8.90;3.83;;;;;;;21.94;58.14;100521.19;5062370;28;20500;-66
2021/06/14 01:39:37;;;;;;;9.27;3.53;;;;;;;21.80;58.52;100528.44;5067608;28;20044;-65
2021/06/14 01:42:06;;;;;;;5.10;3.92;;;;;;;21.44;59.24;100488.34;5068513;28;20051;-66
2021/06/14 01:44:35;;;;;;;6.07;3.67;;;;;;;21.53;59.32;100508.09;5064971;28;20048;-66
2021/06/14 01:47:04;;;;;;;11.57;5.63;;;;;;;21.58;59.55;100526.94;5069633;28;20812;-65
2021/06/14 01:49:32;;;;;;;7.35;4.13;;;;;;;21.58;59.62;100519.22;5069868;28;20045;-66
2021/06/14 01:51:59;;;;;;;9.18;3.95;;;;;;;21.64;59.44;100529.19;5069966;28;20140;-67
2021/06/14 01:54:27;;;;;;;8.10;3.92;;;;;;;21.64;59.55;100520.66;5063302;28;20519;-65
2021/06/14 01:56:55;;;;;;;6.72;3.90;;;;;;;;;;5068721;28;20564;-66
2021/06/14 01:59:26;;;;;;;7.70;3.67;;;;;;;;;;5069935;28;20055;-66
2021/06/14 02:01:55;;;;;;;10.00;4.43;;;;;;;21.66;59.64;100508.91;5065184;28;21453;-69
2021/06/14 02:04:22;;;;;;;8.57;4.40;;;;;;;21.60;59.65;100499.78;5068126;28;20036;-66
2021/06/14 02:06:51;;;;;;;7.20;3.90;;;;;;;21.78;59.26;100514.59;5069478;28;20132;-66
2021/06/14 02:09:21;;;;;;;5.33;3.97;;;;;;;21.81;59.08;100507.34;5064318;28;20136;-66
2021/06/14 02:11:56;;;;;;;6.20;3.00;;;;;;;21.75;59.42;100504.78;5067965;28;20884;-67
2021/06/14 02:14:26;;;;;;;7.72;4.25;;;;;;;21.75;59.50;100510.44;5054802;28;20067;-66
2021/06/14 02:16:54;;;;;;;7.38;4.30;;;;;;;21.75;59.86;100521.00;5067261;28;20448;-62
2021/06/14 02:19:22;;;;;;;7.60;3.03;;;;;;;21.57;60.07;100503.34;5056425;28;20052;-62
2021/06/14 02:21:49;;;;;;;6.80;3.70;;;;;;;21.68;60.06;100513.06;5069334;28;20139;-62
2021/06/14 02:24:16;;;;;;;9.23;3.65;;;;;;;21.71;60.04;100520.06;5058467;28;20090;-62
2021/06/14 02:26:44;;;;;;;8.85;5.15;;;;;;;21.66;59.93;100500.41;5063967;28;20156;-62
2021/06/14 02:29:11;;;;;;;8.20;3.85;;;;;;;21.68;60.27;100512.25;5071806;28;20119;-62
2021/06/14 02:31:38;;;;;;;6.22;3.95;;;;;;;21.72;60.08;100516.03;5068351;28;20132;-62
2021/06/14 02:34:06;;;;;;;6.60;4.03;;;;;;;21.82;60.13;100526.91;5073854;28;20385;-62
2021/06/14 02:36:35;;;;;;;12.73;3.85;;;;;;;21.70;59.99;100507.84;5061077;28;20048;-62
2021/06/14 02:39:12;;;;;;;4.77;3.50;;;;;;;21.55;60.80;100510.59;5061800;28;20080;-61
2021/06/14 02:41:40;;;;;;;5.50;2.90;;;;;;;21.46;61.49;100522.06;5067710;28;20136;-68
2021/06/14 02:44:08;;;;;;;5.80;3.05;;;;;;;21.42;61.74;100521.13;5057638;28;20143;-68
2021/06/14 02:46:39;;;;;;;8.88;3.53;;;;;;;21.35;62.17;100518.88;5066425;28;20072;-68
2021/06/14 02:49:08;;;;;;;10.88;3.60;;;;;;;21.34;62.26;100528.59;5071368;28;20143;-70
2021/06/14 02:51:36;;;;;;;7.95;3.15;;;;;;;21.27;62.56;100519.78;5060231;28;20143;-68
2021/06/14 02:54:07;;;;;;;5.90;2.67;;;;;;;21.30;62.62;100521.94;5059494;28;20485;-68
2021/06/14 02:56:37;;;;;;;6.82;3.25;;;;;;;21.35;62.43;100520.88;5070989;28;20056;-68
2021/06/14 02:59:16;;;;;;;9.77;2.85;;;;;;;21.46;62.19;100524.91;5062813;28;20156;-68
2021/06/14 03:01:48;;;;;;;6.80;3.63;;;;;;;21.49;62.07;100524.19;5065319;28;20131;-67
2021/06/14 03:04:17;;;;;;;9.02;3.53;;;;;;;21.46;61.93;100520.03;5065878;28;20068;-67
2021/06/14 03:06:45;;;;;;;6.80;4.05;;;;;;;21.49;61.74;100522.19;5064400;28;20132;-69
2021/06/14 03:09:12;;;;;;;6.53;3.88;;;;;;;21.60;61.32;100518.88;5068005;28;20124;-69
2021/06/14 03:11:41;;;;;;;6.75;3.90;;;;;;;21.72;60.95;100522.53;5064700;28;20076;-63
2021/06/14 03:14:08;;;;;;;7.53;4.00;;;;;;;21.83;60.60;100548.44;5065600;28;20128;-67
2021/06/14 03:16:36;;;;;;;6.70;4.47;;;;;;;21.76;60.59;100534.03;5070692;28;20045;-64
2021/06/14 03:19:05;;;;;;;7.78;4.75;;;;;;;21.85;60.41;100537.56;5065511;28;20053;-65
2021/06/14 03:21:34;;;;;;;9.17;4.57;;;;;;;21.82;60.03;100541.13;5066966;28;20171;-65
2021/06/14 03:24:02;;;;;;;8.40;4.78;;;;;;;21.82;60.33;100558.19;5069329;28;20396;-65
2021/06/14 03:26:40;;;;;;;7.35;4.20;;;;;;;21.83;59.79;100548.44;5066904;28;20059;-64
2021/06/14 03:29:09;;;;;;;6.47;4.50;;;;;;;21.87;59.99;100557.91;5067689;28;20071;-65
2021/06/14 03:31:37;;;;;;;7.60;5.18;;;;;;;21.73;59.87;100548.94;5068030;28;20135;-65
2021/06/14 03:34:05;;;;;;;7.05;4.65;;;;;;;21.80;59.96;100560.53;5072452;28;20037;-64
2021/06/14 03:36:32;;;;;;;9.65;5.13;;;;;;;21.79;59.98;100560.91;5066844;28;20136;-65
2021/06/14 03:39:00;;;;;;;9.57;4.72;;;;;;;21.78;59.60;100562.94;5070992;28;20050;-65
2021/06/14 03:41:27;;;;;;;9.10;5.07;;;;;;;21.50;59.94;100523.88;5070209;28;20128;-66
2021/06/14 03:43:54;;;;;;;8.00;4.80;;;;;;;21.74;59.95;100562.81;5070399;28;20135;-66
2021/06/14 03:46:21;;;;;;;7.53;4.55;;;;;;;21.72;60.24;100550.97;5064239;28;20131;-65
2021/06/14 03:48:48;;;;;;;6.28;3.95;;;;;;;21.73;60.29;100558.28;5073557;28;20056;-65
2021/06/14 03:51:15;;;;;;;9.05;4.68;;;;;;;21.71;60.37;100554.16;5067360;28;20127;-67
2021/06/14 03:53:56;;;;;;;6.53;3.92;;;;;;;21.65;60.68;100541.38;5061302;28;20147;-66
2021/06/14 03:56:25;;;;;;;10.27;3.90;;;;;;;21.70;60.70;100543.97;5065014;28;20511;-63
2021/06/14 03:58:53;;;;;;;8.93;4.13;;;;;;;21.64;60.78;100546.25;5084122;28;20156;-64
2021/06/14 04:01:20;;;;;;;9.48;4.50;;;;;;;21.62;60.95;100539.25;5067676;28;20558;-66
2021/06/14 04:06:28;;;;;;;5.65;4.50;;;;;;;21.49;61.70;100530.72;5061383;28;20128;-66
2021/06/14 04:08:55;;;;;;;8.95;4.68;;;;;;;21.53;61.56;100543.00;5055868;28;20700;-69
2021/06/14 04:11:23;;;;;;;8.70;4.45;;;;;;;21.53;61.67;100545.84;5064595;28;20674;-68
2021/06/14 04:13:52;;;;;;;11.48;4.10;;;;;;;21.54;61.80;100538.19;5060587;28;20041;-66
2021/06/14 04:16:20;;;;;;;11.38;4.32;;;;;;;21.55;61.53;100525.63;5068821;28;20075;-66
2021/06/14 04:18:48;;;;;;;8.05;4.70;;;;;;;21.63;61.55;100535.22;5063168;28;20074;-66
2021/06/14 04:21:15;;;;;;;6.50;4.15;;;;;;;21.65;61.60;100547.06;5067955;28;20483;-66
2021/06/14 04:23:43;;;;;;;6.90;4.70;;;;;;;21.69;61.61;100553.69;5064763;28;20431;-67
2021/06/14 04:26:11;;;;;;;9.68;4.15;;;;;;;21.69;61.52;100550.84;5056129;28;20154;-67
2021/06/14 04:28:39;;;;;;;7.95;4.15;;;;;;;21.51;61.54;100536.06;5068150;28;20135;-66
2021/06/14 04:31:07;;;;;;;5.82;3.67;;;;;;;21.50;61.81;100552.28;5066545;28;20131;-67
2021/06/14 04:33:34;;;;;;;11.68;4.53;;;;;;;21.41;61.66;100550.72;5070910;28;20052;-67
2021/06/14 04:36:04;;;;;;;8.02;4.57;;;;;;;21.46;62.11;100556.97;5070761;28;20129;-67
2021/06/14 04:38:32;;;;;;;6.15;4.30;;;;;;;21.44;62.03;100555.69;5065149;28;20077;-67
2021/06/14 04:40:59;;;;;;;8.70;4.70;;;;;;;21.36;62.03;100553.78;5066684;28;20106;-75
2021/06/14 04:43:26;;;;;;;8.35;5.10;;;;;;;21.33;61.95;100546.75;5067261;28;20087;-68
2021/06/14 04:45:53;;;;;;;9.50;5.80;;;;;;;21.39;62.03;100562.44;5064964;28;20132;-67
2021/06/14 04:48:20;;;;;;;9.82;5.75;;;;;;;21.37;62.07;100561.97;5069469;28;20136;-69
2021/06/14 04:50:48;;;;;;;10.60;4.70;;;;;;;21.35;62.12;100558.63;5063993;28;20128;-66
2021/06/14 04:53:14;;;;;;;8.18;4.90;;;;;;;21.25;62.13;100553.38;5067261;28;20064;-67
2021/06/14 04:55:42;;;;;;;11.88;4.68;;;;;;;21.27;62.42;100556.72;5060148;28;20045;-67
2021/06/14 04:58:08;;;;;;;8.68;5.07;;;;;;;21.18;62.48;100558.81;5065676;28;20119;-65
2021/06/14 05:00:35;;;;;;;10.75;5.30;;;;;;;21.18;62.56;100565.31;5068309;28;20050;-64
2021/06/14 05:03:03;;;;;;;9.52;5.97;;;;;;;21.21;62.48;100578.00;5066413;28;20127;-64
2021/06/14 05:05:30;;;;;;;14.55;7.03;;;;;;;21.10;62.59;100554.09;5070874;28;20060;-68
2021/06/14 05:07:57;;;;;;;9.57;6.13;;;;;;;21.19;62.41;100580.34;5063091;28;20127;-68
2021/06/14 05:10:24;;;;;;;11.90;7.30;;;;;;;21.02;62.46;100556.66;5068767;28;20362;-62
2021/06/14 05:12:51;;;;;;;16.65;7.13;;;;;;;21.08;62.32;100559.28;5071769;28;20076;-64
2021/06/14 05:15:18;;;;;;;14.88;7.63;;;;;;;21.08;62.43;100565.78;5062889;28;20412;-67
2021/06/14 05:17:45;;;;;;;15.60;7.78;;;;;;;21.03;62.48;100555.47;5064188;28;20055;-66
2021/06/14 05:20:13;;;;;;;21.20;8.95;;;;;;;21.14;62.45;100572.06;5057560;28;20507;-66
2021/06/14 05:22:40;;;;;;;13.73;8.25;;;;;;;21.18;62.43;100575.84;5063643;28;20136;-67
2021/06/14 05:25:08;;;;;;;17.98;7.57;;;;;;;21.20;62.44;100571.50;5060329;28;20044;-66
2021/06/14 05:27:34;;;;;;;17.45;8.55;;;;;;;21.13;62.27;100561.88;5053537;28;20091;-67
2021/06/14 05:30:02;;;;;;;17.80;8.05;;;;;;;21.22;62.37;100565.44;5065155;28;20139;-70
2021/06/14 05:32:31;;;;;;;15.65;7.60;;;;;;;21.29;62.29;100571.38;5062452;28;20588;-68
2021/06/14 05:34:59;;;;;;;13.98;7.05;;;;;;;21.22;62.13;100551.25;5066759;28;20068;-64
2021/06/14 05:37:26;;;;;;;17.98;8.20;;;;;;;21.52;61.95;100586.00;5068996;28;20040;-60
2021/06/14 05:39:52;;;;;;;15.10;8.20;;;;;;;21.59;61.99;100596.78;5062026;28;20136;-64
2021/06/14 05:42:19;;;;;;;17.25;7.95;;;;;;;21.66;61.83;100595.00;5061094;28;20167;-73
2021/06/14 05:44:46;;;;;;;14.27;7.63;;;;;;;21.77;61.55;100586.81;5062716;28;20143;-71
2021/06/14 05:47:13;;;;;;;13.43;7.72;;;;;;;21.89;61.47;100588.84;5066673;28;20068;-63
2021/06/14 05:49:40;;;;;;;16.50;7.63;;;;;;;21.99;61.25;100586.34;5056389;28;20148;-68
2021/06/14 05:52:07;;;;;;;19.45;8.65;;;;;;;22.12;61.21;100580.63;5060967;28;20574;-63
2021/06/14 05:54:33;;;;;;;14.27;7.32;;;;;;;22.21;60.90;100575.69;5066853;28;20531;-63
2021/06/14 05:57:05;;;;;;;12.38;7.00;;;;;;;22.40;60.84;100580.75;5068498;28;20598;-60
2021/06/14 05:59:32;;;;;;;12.52;6.95;;;;;;;22.53;60.44;100585.22;5064618;28;20179;-60
2021/06/14 06:02:00;;;;;;;13.20;6.57;;;;;;;22.64;60.29;100591.22;5068907;28;22470;-60
2021/06/14 06:04:26;;;;;;;13.00;6.80;;;;;;;22.92;60.01;100600.59;5060743;28;20080;-63
2021/06/14 06:06:53;;;;;;;21.08;6.85;;;;;;;23.00;59.74;100592.25;5072601;28;20052;-60
2021/06/14 06:09:20;;;;;;;16.55;7.68;;;;;;;23.18;59.62;100619.25;5067207;28;20178;-60
2021/06/14 06:11:47;;;;;;;12.65;6.55;;;;;;;23.32;59.09;100599.69;5057343;28;20102;-60
2021/06/14 06:14:15;;;;;;;14.10;6.22;;;;;;;23.51;59.02;100609.50;5061794;28;20473;-61
2021/06/14 06:16:41;;;;;;;11.23;6.18;;;;;;;23.64;58.50;100619.63;5073051;28;20135;-60
2021/06/14 06:19:08;;;;;;;10.10;6.25;;;;;;;23.70;58.52;100623.91;5073496;28;20088;-61
2021/06/14 06:21:37;;;;;;;14.40;7.20;;;;;;;23.70;58.22;100623.09;5072418;28;20182;-61
2021/06/14 06:24:04;;;;;;;14.98;7.18;;;;;;;23.70;58.55;100632.47;5074415;28;20127;-59
2021/06/14 06:26:31;;;;;;;14.18;8.07;;;;;;;23.64;58.47;100628.19;5066736;28;20087;-60
2021/06/14 06:28:58;;;;;;;12.18;7.03;;;;;;;23.64;58.55;100642.44;5069980;28;20072;-60
2021/06/14 06:31:24;;;;;;;13.30;7.88;;;;;;;23.74;58.10;100639.06;5066456;28;20151;-59
2021/06/14 06:33:51;;;;;;;17.30;7.82;;;;;;;23.87;58.11;100637.78;5062101;28;20041;-59
2021/06/14 06:36:18;;;;;;;14.32;8.02;;;;;;;24.06;57.96;100644.75;5064577;28;20164;-59
2021/06/14 06:38:45;;;;;;;16.23;7.28;;;;;;;24.15;57.75;100642.53;5064683;28;20124;-59
2021/06/14 06:41:12;;;;;;;11.30;6.15;;;;;;;24.31;57.21;100651.91;5063415;28;20515;-60
2021/06/14 06:43:39;;;;;;;14.38;6.50;;;;;;;24.45;56.96;100648.59;5067046;28;20127;-60
2021/06/14 06:46:05;;;;;;;9.65;6.22;;;;;;;24.57;56.36;100653.31;5066080;28;20040;-59
2021/06/14 06:48:33;;;;;;;16.73;6.65;;;;;;;24.66;55.95;100636.81;5060157;28;20048;-59
2021/06/14 06:51:00;;;;;;;12.00;5.80;;;;;;;24.79;55.52;100635.47;5058720;28;20075;-61
2021/06/14 06:53:28;;;;;;;9.48;5.90;;;;;;;25.02;55.08;100646.13;5067013;28;20136;-59
2021/06/14 06:55:55;;;;;;;12.13;5.40;;;;;;;25.20;54.90;100643.69;5065858;28;20068;-60
2021/06/14 06:58:23;;;;;;;11.43;5.50;;;;;;;25.34;54.73;100641.09;5067248;28;20179;-65
2021/06/14 07:00:51;;;;;;;9.55;5.80;;;;;;;25.71;53.92;100638.50;5066917;28;21743;-63
2021/06/14 07:03:19;;;;;;;13.10;5.80;;;;;;;26.18;52.80;100642.97;5071556;28;20057;-64
2021/06/14 07:05:47;;;;;;;12.30;6.22;;;;;;;26.53;51.94;100627.59;5070993;28;20076;-64
2021/06/14 07:08:14;;;;;;;10.85;5.95;;;;;;;26.75;51.31;100610.69;5085713;28;20101;-65
2021/06/14 07:10:41;;;;;;;11.80;5.97;;;;;;;27.29;50.51;100643.72;5094368;28;20052;-65
2021/06/14 07:13:09;;;;;;;12.63;5.35;;;;;;;27.39;49.93;100625.81;5094383;28;20495;-65
2021/06/14 07:15:36;;;;;;;11.85;5.72;;;;;;;27.72;49.74;100642.09;5054494;28;20136;-64
2021/06/14 07:18:03;;;;;;;10.90;4.68;;;;;;;27.86;49.01;100632.81;5072976;28;20055;-64
2021/06/14 07:20:30;;;;;;;9.10;4.72;;;;;;;28.15;48.24;100641.69;5073892;28;20463;-64
2021/06/14 07:22:57;;;;;;;9.10;4.43;;;;;;;28.39;47.64;100654.59;5062790;28;20045;-64
2021/06/14 07:25:25;;;;;;;15.15;5.97;;;;;;;28.45;47.16;100648.09;5054029;28;20181;-64
2021/06/14 07:27:52;;;;;;;13.65;5.30;;;;;;;28.74;46.67;100669.19;5054424;28;20045;-64
2021/06/14 07:30:28;;;;;;;11.02;4.68;;;;;;;28.98;46.01;100661.09;5053993;28;20428;-65
2021/06/14 07:32:55;;;;;;;13.20;4.75;;;;;;;29.17;45.69;100657.91;5055509;28;20072;-65
2021/06/14 07:35:22;;;;;;;13.18;5.03;;;;;;;29.29;44.89;100657.53;5074026;28;20057;-65
2021/06/14 07:37:49;;;;;;;9.25;4.47;;;;;;;29.43;44.17;100665.38;5074000;28;20072;-65
2021/06/14 07:40:16;;;;;;;7.65;3.35;;;;;;;29.56;44.48;100677.31;5071580;28;20617;-64
2021/06/14 07:42:43;;;;;;;8.23;4.38;;;;;;;29.69;44.06;100674.94;5053718;28;20135;-64
2021/06/14 07:45:11;;;;;;;8.18;3.67;;;;;;;29.79;43.55;100671.25;5054289;28;20069;-64
2021/06/14 07:47:38;;;;;;;9.73;5.35;;;;;;;29.83;43.09;100672.06;5053597;28;20049;-65
2021/06/14 07:50:06;;;;;;;12.95;4.50;;;;;;;29.88;42.77;100656.41;5056073;28;20131;-65
2021/06/14 07:52:33;;;;;;;11.45;4.13;;;;;;;30.08;42.41;100671.25;5073710;28;20136;-65
2021/06/14 07:55:01;;;;;;;12.40;4.28;;;;;;;30.40;42.43;100682.78;5058643;28;20049;-66
2021/06/14 07:57:27;;;;;;;10.82;4.47;;;;;;;30.43;41.79;100671.25;5053732;28;20084;-64
2021/06/14 07:59:57;;;;;;;12.35;4.22;;;;;;;30.49;41.99;100667.94;5072074;28;20040;-65
2021/06/14 08:02:24;;;;;;;8.40;3.90;;;;;;;30.59;41.82;100658.44;5070924;28;20051;-65
2021/06/14 08:04:51;;;;;;;10.35;3.60;;;;;;;30.55;41.30;100672.06;5073103;28;20045;-65
2021/06/14 08:07:18;;;;;;;10.27;4.80;;;;;;;30.33;41.38;100660.56;5069892;28;20040;-65
2021/06/14 08:09:47;;;;;;;9.23;4.38;;;;;;;30.30;41.47;100684.44;5088915;28;20047;-65
2021/06/14 08:12:14;;;;;;;9.57;3.97;;;;;;;30.37;41.21;100678.66;5072232;28;20136;-65
2021/06/14 08:14:40;;;;;;;11.70;4.18;;;;;;;30.38;41.00;100668.78;5093200;28;20063;-65
2021/06/14 08:17:07;;;;;;;10.75;5.22;;;;;;;30.32;41.16;100669.59;5079799;28;20489;-65
2021/06/14 08:19:44;;;;;;;10.98;4.80;;;;;;;30.03;41.08;100677.44;5055087;28;20052;-66
2021/06/14 08:27:23;;;;;;;8.18;4.00;;;;;;;29.94;41.35;100651.91;5052889;28;20492;-66
2021/06/14 08:29:51;;;;;;;8.18;3.53;;;;;;;30.24;41.20;100640.00;5053057;28;20451;-66
2021/06/14 08:32:18;;;;;;;9.95;3.95;;;;;;;30.81;40.63;100680.25;5053114;28;20086;-66
2021/06/14 08:34:45;;;;;;;7.43;3.58;;;;;;;30.73;40.61;100674.88;5052592;28;20052;-67
2021/06/14 08:37:12;;;;;;;8.15;3.45;;;;;;;30.43;40.31;100685.66;5065714;28;20118;-67
2021/06/14 08:39:39;;;;;;;9.10;3.17;;;;;;;30.50;40.46;100676.19;5070100;28;20132;-65
2021/06/14 08:42:07;;;;;;;8.43;3.63;;;;;;;30.50;40.25;100675.38;5070882;28;20079;-66
2021/06/14 08:44:35;;;;;;;7.22;3.45;;;;;;;30.64;40.14;100658.03;5071236;28;20110;-65
2021/06/14 08:47:03;;;;;;;5.80;2.92;;;;;;;30.64;40.19;100658.88;5072398;28;20044;-65
2021/06/14 08:49:32;;;;;;;8.48;2.83;;;;;;;30.85;39.07;100669.53;5055459;28;20045;-64
2021/06/14 08:52:00;;;;;;;5.30;2.97;;;;;;;30.90;38.77;100666.19;5056317;28;20044;-64
2021/06/14 08:54:27;;;;;;;7.15;2.95;;;;;;;31.18;38.35;100664.47;5071738;28;20566;-64
2021/06/14 08:56:54;;;;;;;6.65;3.40;;;;;;;31.33;37.77;100660.28;5055582;28;20128;-64
2021/06/14 08:59:22;;;;;;;7.03;3.05;;;;;;;31.76;37.89;100665.78;5056630;28;20045;-64
2021/06/14 09:01:49;;;;;;;8.15;3.53;;;;;;;32.15;37.62;100670.47;5071786;28;20539;-64
2021/06/14 09:04:19;;;;;;;6.30;3.47;;;;;;;32.47;36.56;100664.38;5052888;28;20127;-64
2021/06/14 09:06:46;;;;;;;5.28;3.38;;;;;;;32.73;36.20;100660.00;5052183;28;20103;-64
2021/06/14 09:09:13;;;;;;;10.27;2.28;;;;;;;33.06;35.06;100669.16;5054924;28;20077;-64
2021/06/14 09:11:53;;;;;;;7.30;2.42;;;;;;;33.22;34.92;100666.44;5070642;28;20052;-64
2021/06/14 09:14:31;;;;;;;4.93;2.40;;;;;;;33.31;34.69;100654.34;5071154;28;20048;-64
2021/06/14 09:17:04;;;;;;;4.80;2.57;;;;;;;33.61;34.47;100653.50;5065248;28;20075;-64
2021/06/14 09:19:31;;;;;;;9.40;2.47;;;;;;;33.78;33.76;100671.88;5051946;28;20309;-64
2021/06/14 09:22:28;;;;;;;3.25;2.22;;;;;;;34.00;33.75;100659.94;5068553;28;20052;-64
2021/06/14 09:25:01;;;;;;;7.30;2.50;;;;;;;34.19;33.40;100654.25;5059934;28;20128;-65
2021/06/14 09:27:36;;;;;;;6.95;2.17;;;;;;;34.20;33.27;100652.97;5072019;28;20041;-64
2021/06/14 09:30:33;;;;;;;5.40;2.10;;;;;;;34.31;33.58;100646.97;5057825;28;20094;-65
2021/06/14 09:33:01;;;;;;;4.95;2.50;;;;;;;34.47;32.82;100649.19;5062616;28;20048;-65
2021/06/14 09:35:34;;;;;;;3.75;2.28;;;;;;;34.60;32.31;100650.19;5096210;28;20128;-64
2021/06/14 09:38:01;;;;;;;9.15;2.75;;;;;;;34.65;31.71;100666.25;5070010;28;20099;-65
2021/06/14 09:40:35;;;;;;;6.38;2.45;;;;;;;34.75;31.99;100652.81;5074070;28;20044;-64
2021/06/14 09:43:04;;;;;;;5.28;2.25;;;;;;;34.88;31.66;100660.41;5072342;28;20044;-64
2021/06/14 09:45:31;;;;;;;8.25;3.40;;;;;;;34.89;31.61;100656.22;5075660;28;20120;-64
2021/06/14 09:47:58;;;;;;;8.75;2.28;;;;;;;35.00;31.10;100663.91;5071912;28;20072;-65
2021/06/14 09:50:30;;;;;;;6.60;2.83;;;;;;;35.02;30.88;100649.81;5068215;28;20048;-64
2021/06/14 09:53:05;;;;;;;5.93;2.78;;;;;;;34.99;30.82;100651.47;5071986;28;20045;-64
2021/06/14 09:55:32;;;;;;;5.70;2.78;;;;;;;35.13;30.32;100662.00;5075364;28;20094;-64
2021/06/14 09:58:20;;;;;;;9.50;2.78;;;;;;;34.87;30.37;100649.22;5066046;28;20044;-64
2021/06/14 10:01:04;;;;;;;9.77;3.05;;;;;;;34.59;31.09;100645.66;5073353;28;20095;-64
2021/06/14 10:03:43;;;;;;;4.80;2.45;;;;;;;34.84;31.29;100650.16;5074032;28;20044;-65
2021/06/14 10:06:12;;;;;;;7.70;3.55;;;;;;;35.08;30.95;100651.75;5065009;28;20098;-65
2021/06/14 10:08:43;;;;;;;7.97;3.60;;;;;;;35.14;30.77;100643.31;5075194;28;20045;-65
2021/06/14 10:11:13;;;;;;;6.32;3.08;;;;;;;35.23;30.26;100648.50;5060014;28;20382;-65
2021/06/14 10:13:46;;;;;;;9.95;3.33;;;;;;;35.34;30.46;100644.09;5054167;28;20544;-65
2021/06/14 10:16:24;;;;;;;6.55;3.40;;;;;;;35.44;30.19;100648.03;5055365;28;20144;-65
2021/06/14 10:18:56;;;;;;;3.78;2.53;;;;;;;35.52;29.88;100649.53;5055172;28;20044;-65
2021/06/14 10:21:54;;;;;;;5.78;2.97;;;;;;;35.60;30.22;100656.00;5065847;28;20131;-65
2021/06/14 10:24:22;;;;;;;7.00;2.37;;;;;;;35.76;30.15;100658.09;5071944;28;20542;-65
2021/06/14 10:26:51;;;;;;;5.30;3.08;;;;;;;35.94;29.84;100655.56;5072708;28;20048;-65
2021/06/14 10:29:19;;;;;;;8.75;3.40;;;;;;;35.93;29.27;100656.81;5090857;28;20052;-64
2021/06/14 10:31:48;;;;;;;6.93;2.30;;;;;;;35.94;29.24;100652.66;5090814;28;20135;-64
2021/06/14 10:34:16;;;;;;;5.07;2.83;;;;;;;36.00;29.23;100668.31;5056969;28;20052;-65
2021/06/14 10:36:48;;;;;;;5.63;2.72;;;;;;;36.01;29.01;100658.34;5054765;28;20049;-64
2021/06/14 10:39:18;;;;;;;10.35;2.95;;;;;;;36.16;29.63;100652.13;5055382;28;20136;-65
2021/06/14 10:41:45;;;;;;;8.88;3.05;;;;;;;36.33;29.01;100658.75;5071223;28;20053;-65
2021/06/14 10:44:12;;;;;;;7.28;2.65;;;;;;;36.54;28.33;100670.66;5071631;28;20051;-64
2021/06/14 10:46:44;;;;;;;7.43;4.60;;;;;;;36.68;29.59;100649.06;5074790;28;20190;-64
2021/06/14 10:49:14;;;;;;;8.05;3.92;;;;;;;36.53;30.12;100651.56;5075206;28;20040;-64
2021/06/14 10:51:44;;;;;;;7.38;4.07;;;;;;;36.37;30.06;100662.38;5074093;28;20044;-64
2021/06/14 10:54:17;;;;;;;9.60;5.38;;;;;;;36.04;30.53;100634.16;5072191;28;20498;-65
2021/06/14 10:56:45;;;;;;;13.48;5.03;;;;;;;35.87;30.80;100643.31;5073262;28;20049;-66
2021/06/14 10:59:17;;;;;;;11.93;5.63;;;;;;;35.80;30.92;100664.66;5065401;28;20507;-66
2021/06/14 11:01:49;;;;;;;9.80;4.55;;;;;;;35.53;31.32;100651.16;5073525;28;20408;-65
2021/06/14 11:04:27;;;;;;;11.80;5.75;;;;;;;35.45;31.46;100651.75;5066762;28;20049;-65
2021/06/14 11:06:56;;;;;;;14.40;5.22;;;;;;;35.35;31.38;100656.53;5073771;28;20135;-65
2021/06/14 11:09:23;;;;;;;;;;;;;;;35.00;32.52;100658.91;5070574;28;20076;-65
2021/06/14 11:11:57;;;;;;;13.85;5.53;;;;;;;35.22;31.83;100678.81;5074115;28;20000;-65
2021/06/14 11:14:41;;;;;;;10.55;5.60;;;;;;;35.11;32.03;100674.06;5071643;28;20543;-65
2021/06/14 11:17:26;;;;;;;11.90;5.72;;;;;;;34.82;32.21;100670.06;5073419;28;20144;-65
2021/06/14 11:19:59;;;;;;;10.82;5.50;;;;;;;34.60;32.89;100676.31;5065287;28;20126;-65
2021/06/14 11:22:55;;;;;;;8.23;6.18;;;;;;;34.42;33.29;100675.78;5066603;28;20417;-64
2021/06/14 11:25:25;;;;;;;12.85;6.38;;;;;;;34.12;33.22;100657.28;5058323;28;20498;-65
2021/06/14 11:27:52;;;;;;;10.27;6.20;;;;;;;34.05;33.63;100660.25;5070294;28;20084;-66
2021/06/14 11:30:32;;;;;;;12.88;7.47;;;;;;;34.39;33.83;100679.56;5052724;28;20698;-65
2021/06/14 11:32:59;;;;;;;10.23;6.15;;;;;;;34.27;33.74;100688.91;5054353;28;20153;-66
2021/06/14 11:35:31;;;;;;;14.15;7.60;;;;;;;34.32;33.84;100683.41;5053771;28;20049;-65
2021/06/14 11:38:04;;;;;;;20.50;8.88;;;;;;;34.10;33.82;100671.38;5056718;28;20048;-66
2021/06/14 11:40:34;;;;;;;17.98;7.65;;;;;;;33.91;34.17;100675.78;5073780;28;20052;-65
2021/06/14 11:43:12;;;;;;;14.00;7.72;;;;;;;33.78;34.67;100671.88;5062211;28;20091;-65